sensor_id;sensor_type;location;lat;lon;timestamp;P1;durP1;ratioP1;P2;durP2;ratioP2
62709;SDS011;48770;51.624;5.886;2023-05-14T00:01:28;2.97;;;2.35;;
62709;SDS011;48770;51.624;5.886;2023-05-14T00:03:53;4.55;;;2.65;;
62709;SDS011;48770;51.624;5.886;2023-05-14T00:06:18;5.78;;;2.83;;
62709;SDS011;48770;51.624;5.886;2023-05-14T00:08:44;5.60;;;2.60;;
62709;SDS011;48770;51.624;5.886;2023-05-14T00:11:09;3.25;;;2.80;;
62709;SDS011;48770;51.624;5.886;2023-05-14T00:13:34;5.07;;;2.60;;
62709;SDS011;48770;51.624;5.886;2023-05-14T00:16:00;3.20;;;2.90;;
62709;SDS011;48770;51.624;5.886;2023-05-14T00:18:26;4.65;;;2.83;;
62709;SDS011;48770;51.624;5.886;2023-05-14T00:20:51;2.70;;;2.45;;
62709;SDS011;48770;51.624;5.886;2023-05-14T00:23:19;4.85;;;2.72;;
62709;SDS011;48770;51.624;5.886;2023-05-14T00:25:45;3.20;;;2.45;;
62709;SDS011;48770;51.624;5.886;2023-05-14T00:28:10;4.38;;;2.50;;
62709;SDS011;48770;51.624;5.886;2023-05-14T00:30:35;4.57;;;2.60;;
62709;SDS011;48770;51.624;5.886;2023-05-14T00:33:01;6.82;;;2.70;;
62709;SDS011;48770;51.624;5.886;2023-05-14T00:35:26;2.60;;;2.40;;
62709;SDS011;48770;51.624;5.886;2023-05-14T00:37:51;3.08;;;2.80;;
62709;SDS011;48770;51.624;5.886;2023-05-14T00:40:17;3.45;;;2.70;;
62709;SDS011;48770;51.624;5.886;2023-05-14T00:42:43;3.17;;;2.88;;
62709;SDS011;48770;51.624;5.886;2023-05-14T00:45:09;3.67;;;2.70;;
62709;SDS011;48770;51.624;5.886;2023-05-14T00:47:34;4.15;;;3.00;;
62709;SDS011;48770;51.624;5.886;2023-05-14T00:50:01;4.70;;;3.03;;
62709;SDS011;48770;51.624;5.886;2023-05-14T00:52:27;5.75;;;3.20;;
62709;SDS011;48770;51.624;5.886;2023-05-14T00:54:53;3.20;;;2.75;;
62709;SDS011;48770;51.624;5.886;2023-05-14T00:57:18;4.97;;;3.08;;
62709;SDS011;48770;51.624;5.886;2023-05-14T00:59:44;3.40;;;2.80;;
62709;SDS011;48770;51.624;5.886;2023-05-14T01:02:09;4.57;;;3.33;;
62709;SDS011;48770;51.624;5.886;2023-05-14T01:04:35;3.92;;;2.80;;
62709;SDS011;48770;51.624;5.886;2023-05-14T01:07:11;6.03;;;2.90;;
62709;SDS011;48770;51.624;5.886;2023-05-14T01:09:43;5.65;;;3.08;;
62709;SDS011;48770;51.624;5.886;2023-05-14T01:17:31;4.38;;;2.75;;
62709;SDS011;48770;51.624;5.886;2023-05-14T01:19:59;4.32;;;3.10;;
62709;SDS011;48770;51.624;5.886;2023-05-14T01:22:26;7.78;;;2.80;;
62709;SDS011;48770;51.624;5.886;2023-05-14T01:24:51;4.85;;;2.92;;
62709;SDS011;48770;51.624;5.886;2023-05-14T01:27:21;7.07;;;3.75;;
62709;SDS011;48770;51.624;5.886;2023-05-14T01:32:47;4.38;;;3.42;;
62709;SDS011;48770;51.624;5.886;2023-05-14T01:35:15;4.35;;;3.50;;
62709;SDS011;48770;51.624;5.886;2023-05-14T01:37:42;4.35;;;3.50;;
62709;SDS011;48770;51.624;5.886;2023-05-14T01:40:08;6.10;;;3.45;;
62709;SDS011;48770;51.624;5.886;2023-05-14T01:42:35;4.20;;;3.33;;
62709;SDS011;48770;51.624;5.886;2023-05-14T01:45:01;5.40;;;3.47;;
62709;SDS011;48770;51.624;5.886;2023-05-14T01:47:27;5.32;;;3.30;;
62709;SDS011;48770;51.624;5.886;2023-05-14T01:49:52;4.75;;;3.90;;
62709;SDS011;48770;51.624;5.886;2023-05-14T01:52:17;6.78;;;3.33;;
62709;SDS011;48770;51.624;5.886;2023-05-14T01:54:45;5.18;;;3.38;;
62709;SDS011;48770;51.624;5.886;2023-05-14T01:57:11;5.68;;;3.72;;
62709;SDS011;48770;51.624;5.886;2023-05-14T01:59:36;5.70;;;4.25;;
62709;SDS011;48770;51.624;5.886;2023-05-14T02:02:01;6.37;;;3.90;;
62709;SDS011;48770;51.624;5.886;2023-05-14T02:04:27;11.02;;;4.10;;
62709;SDS011;48770;51.624;5.886;2023-05-14T02:06:52;8.48;;;4.80;;
62709;SDS011;48770;51.624;5.886;2023-05-14T02:09:18;6.05;;;3.75;;
62709;SDS011;48770;51.624;5.886;2023-05-14T02:11:43;6.18;;;3.45;;
62709;SDS011;48770;51.624;5.886;2023-05-14T02:14:08;4.68;;;3.67;;
62709;SDS011;48770;51.624;5.886;2023-05-14T02:16:34;4.57;;;3.65;;
62709;SDS011;48770;51.624;5.886;2023-05-14T02:18:59;8.50;;;4.45;;
62709;SDS011;48770;51.624;5.886;2023-05-14T02:21:24;4.40;;;3.97;;
62709;SDS011;48770;51.624;5.886;2023-05-14T02:23:50;5.70;;;4.00;;
62709;SDS011;48770;51.624;5.886;2023-05-14T02:26:15;4.47;;;4.03;;
62709;SDS011;48770;51.624;5.886;2023-05-14T02:28:40;5.90;;;3.78;;
62709;SDS011;48770;51.624;5.886;2023-05-14T02:31:06;4.50;;;3.80;;
62709;SDS011;48770;51.624;5.886;2023-05-14T02:33:31;4.60;;;4.10;;
62709;SDS011;48770;51.624;5.886;2023-05-14T02:35:56;5.78;;;3.80;;
62709;SDS011;48770;51.624;5.886;2023-05-14T02:38:22;4.18;;;3.63;;
62709;SDS011;48770;51.624;5.886;2023-05-14T02:40:47;5.68;;;4.10;;
62709;SDS011;48770;51.624;5.886;2023-05-14T02:43:13;6.47;;;4.00;;
62709;SDS011;48770;51.624;5.886;2023-05-14T02:45:38;6.28;;;4.22;;
62709;SDS011;48770;51.624;5.886;2023-05-14T02:48:03;7.15;;;4.30;;
62709;SDS011;48770;51.624;5.886;2023-05-14T02:50:29;4.32;;;3.85;;
62709;SDS011;48770;51.624;5.886;2023-05-14T02:52:54;6.45;;;3.70;;
62709;SDS011;48770;51.624;5.886;2023-05-14T02:55:20;6.93;;;3.80;;
62709;SDS011;48770;51.624;5.886;2023-05-14T02:57:45;5.43;;;4.15;;
62709;SDS011;48770;51.624;5.886;2023-05-14T03:00:11;4.97;;;4.30;;
62709;SDS011;48770;51.624;5.886;2023-05-14T03:02:37;7.63;;;4.28;;
62709;SDS011;48770;51.624;5.886;2023-05-14T03:05:02;6.55;;;4.05;;
62709;SDS011;48770;51.624;5.886;2023-05-14T03:07:28;6.57;;;4.53;;
62709;SDS011;48770;51.624;5.886;2023-05-14T03:09:53;4.90;;;4.00;;
62709;SDS011;48770;51.624;5.886;2023-05-14T03:12:18;5.97;;;4.07;;
62709;SDS011;48770;51.624;5.886;2023-05-14T03:14:45;4.97;;;4.47;;
62709;SDS011;48770;51.624;5.886;2023-05-14T03:17:10;4.85;;;4.35;;
62709;SDS011;48770;51.624;5.886;2023-05-14T03:19:36;7.63;;;4.22;;
62709;SDS011;48770;51.624;5.886;2023-05-14T03:22:01;6.53;;;4.22;;
62709;SDS011;48770;51.624;5.886;2023-05-14T03:24:26;6.40;;;3.80;;
62709;SDS011;48770;51.624;5.886;2023-05-14T03:26:52;6.55;;;4.78;;
62709;SDS011;48770;51.624;5.886;2023-05-14T03:29:17;10.33;;;4.67;;
62709;SDS011;48770;51.624;5.886;2023-05-14T03:31:42;13.02;;;4.68;;
62709;SDS011;48770;51.624;5.886;2023-05-14T03:34:08;5.22;;;4.22;;
62709;SDS011;48770;51.624;5.886;2023-05-14T03:36:33;7.32;;;4.65;;
62709;SDS011;48770;51.624;5.886;2023-05-14T03:39:00;6.95;;;4.07;;
62709;SDS011;48770;51.624;5.886;2023-05-14T03:41:26;11.32;;;4.90;;
62709;SDS011;48770;51.624;5.886;2023-05-14T03:43:51;7.35;;;4.70;;
62709;SDS011;48770;51.624;5.886;2023-05-14T03:46:16;6.28;;;4.18;;
62709;SDS011;48770;51.624;5.886;2023-05-14T03:48:42;9.00;;;4.88;;
62709;SDS011;48770;51.624;5.886;2023-05-14T03:51:07;6.63;;;4.15;;
62709;SDS011;48770;51.624;5.886;2023-05-14T03:53:32;7.35;;;4.57;;
62709;SDS011;48770;51.624;5.886;2023-05-14T03:55:58;4.75;;;4.20;;
62709;SDS011;48770;51.624;5.886;2023-05-14T03:58:23;8.40;;;4.47;;
62709;SDS011;48770;51.624;5.886;2023-05-14T04:00:48;9.05;;;5.05;;
62709;SDS011;48770;51.624;5.886;2023-05-14T04:03:14;6.70;;;4.97;;
62709;SDS011;48770;51.624;5.886;2023-05-14T04:05:39;6.15;;;4.47;;
62709;SDS011;48770;51.624;5.886;2023-05-14T04:08:04;6.53;;;4.50;;
62709;SDS011;48770;51.624;5.886;2023-05-14T04:10:30;6.88;;;4.10;;
62709;SDS011;48770;51.624;5.886;2023-05-14T04:12:56;7.22;;;4.10;;
62709;SDS011;48770;51.624;5.886;2023-05-14T04:15:21;5.70;;;4.43;;
62709;SDS011;48770;51.624;5.886;2023-05-14T04:17:47;5.88;;;3.97;;
62709;SDS011;48770;51.624;5.886;2023-05-14T04:20:12;5.60;;;4.43;;
62709;SDS011;48770;51.624;5.886;2023-05-14T04:22:37;7.28;;;4.75;;
62709;SDS011;48770;51.624;5.886;2023-05-14T04:25:03;7.85;;;4.72;;
62709;SDS011;48770;51.624;5.886;2023-05-14T04:27:28;4.95;;;4.32;;
62709;SDS011;48770;51.624;5.886;2023-05-14T04:29:54;4.60;;;4.20;;
62709;SDS011;48770;51.624;5.886;2023-05-14T04:32:19;4.75;;;4.22;;
62709;SDS011;48770;51.624;5.886;2023-05-14T04:34:45;6.90;;;4.97;;
62709;SDS011;48770;51.624;5.886;2023-05-14T04:37:13;7.15;;;4.45;;
62709;SDS011;48770;51.624;5.886;2023-05-14T04:39:38;5.67;;;5.13;;
62709;SDS011;48770;51.624;5.886;2023-05-14T04:42:04;5.50;;;4.20;;
62709;SDS011;48770;51.624;5.886;2023-05-14T04:44:30;6.13;;;4.70;;
62709;SDS011;48770;51.624;5.886;2023-05-14T04:46:57;5.68;;;4.28;;
62709;SDS011;48770;51.624;5.886;2023-05-14T04:49:22;7.38;;;4.57;;
62709;SDS011;48770;51.624;5.886;2023-05-14T04:51:47;5.25;;;4.28;;
62709;SDS011;48770;51.624;5.886;2023-05-14T04:54:13;6.10;;;4.47;;
62709;SDS011;48770;51.624;5.886;2023-05-14T04:56:38;6.82;;;4.45;;
62709;SDS011;48770;51.624;5.886;2023-05-14T04:59:04;5.53;;;4.60;;
62709;SDS011;48770;51.624;5.886;2023-05-14T05:01:29;7.45;;;4.40;;
62709;SDS011;48770;51.624;5.886;2023-05-14T05:03:54;6.13;;;4.88;;
62709;SDS011;48770;51.624;5.886;2023-05-14T05:06:21;8.82;;;5.32;;
62709;SDS011;48770;51.624;5.886;2023-05-14T05:08:46;5.18;;;4.20;;
62709;SDS011;48770;51.624;5.886;2023-05-14T05:11:12;7.68;;;4.97;;
62709;SDS011;48770;51.624;5.886;2023-05-14T05:13:37;6.68;;;4.40;;
62709;SDS011;48770;51.624;5.886;2023-05-14T05:16:02;5.22;;;4.50;;
62709;SDS011;48770;51.624;5.886;2023-05-14T05:18:28;9.52;;;4.80;;
62709;SDS011;48770;51.624;5.886;2023-05-14T05:20:53;6.65;;;4.80;;
62709;SDS011;48770;51.624;5.886;2023-05-14T05:23:19;6.10;;;4.82;;
62709;SDS011;48770;51.624;5.886;2023-05-14T05:25:44;7.28;;;4.68;;
62709;SDS011;48770;51.624;5.886;2023-05-14T05:28:09;7.15;;;5.20;;
62709;SDS011;48770;51.624;5.886;2023-05-14T05:30:35;5.65;;;4.88;;
62709;SDS011;48770;51.624;5.886;2023-05-14T05:33:00;8.45;;;4.90;;
62709;SDS011;48770;51.624;5.886;2023-05-14T05:35:25;5.57;;;4.78;;
62709;SDS011;48770;51.624;5.886;2023-05-14T05:37:51;7.03;;;4.47;;
62709;SDS011;48770;51.624;5.886;2023-05-14T05:40:16;5.30;;;4.38;;
62709;SDS011;48770;51.624;5.886;2023-05-14T05:42:42;6.45;;;4.63;;
62709;SDS011;48770;51.624;5.886;2023-05-14T05:45:07;7.85;;;4.63;;
62709;SDS011;48770;51.624;5.886;2023-05-14T05:47:33;8.38;;;4.90;;
62709;SDS011;48770;51.624;5.886;2023-05-14T05:49:58;6.63;;;4.57;;
62709;SDS011;48770;51.624;5.886;2023-05-14T05:52:23;5.45;;;4.47;;
62709;SDS011;48770;51.624;5.886;2023-05-14T05:54:49;8.07;;;4.75;;
62709;SDS011;48770;51.624;5.886;2023-05-14T05:57:14;5.80;;;4.43;;
62709;SDS011;48770;51.624;5.886;2023-05-14T05:59:40;6.50;;;4.93;;
62709;SDS011;48770;51.624;5.886;2023-05-14T06:02:05;6.00;;;4.43;;
62709;SDS011;48770;51.624;5.886;2023-05-14T06:04:30;5.88;;;4.63;;
62709;SDS011;48770;51.624;5.886;2023-05-14T06:06:56;6.15;;;4.60;;
62709;SDS011;48770;51.624;5.886;2023-05-14T06:09:21;5.95;;;3.90;;
62709;SDS011;48770;51.624;5.886;2023-05-14T06:11:46;6.38;;;4.63;;
62709;SDS011;48770;51.624;5.886;2023-05-14T06:14:12;5.80;;;4.28;;
62709;SDS011;48770;51.624;5.886;2023-05-14T06:16:37;7.30;;;4.13;;
62709;SDS011;48770;51.624;5.886;2023-05-14T06:19:02;7.15;;;4.50;;
62709;SDS011;48770;51.624;5.886;2023-05-14T06:21:28;6.68;;;4.95;;
62709;SDS011;48770;51.624;5.886;2023-05-14T06:23:53;6.10;;;4.30;;
62709;SDS011;48770;51.624;5.886;2023-05-14T06:26:18;7.20;;;3.80;;
62709;SDS011;48770;51.624;5.886;2023-05-14T06:28:43;7.95;;;4.60;;
62709;SDS011;48770;51.624;5.886;2023-05-14T06:31:09;6.80;;;4.45;;
62709;SDS011;48770;51.624;5.886;2023-05-14T06:33:34;9.38;;;4.30;;
62709;SDS011;48770;51.624;5.886;2023-05-14T06:36:02;10.07;;;4.32;;
62709;SDS011;48770;51.624;5.886;2023-05-14T06:38:28;6.63;;;4.38;;
62709;SDS011;48770;51.624;5.886;2023-05-14T06:40:54;8.32;;;4.28;;
62709;SDS011;48770;51.624;5.886;2023-05-14T06:43:19;5.93;;;4.38;;
62709;SDS011;48770;51.624;5.886;2023-05-14T06:45:48;6.00;;;4.45;;
62709;SDS011;48770;51.624;5.886;2023-05-14T06:48:16;5.13;;;4.20;;
62709;SDS011;48770;51.624;5.886;2023-05-14T06:50:42;7.75;;;4.13;;
62709;SDS011;48770;51.624;5.886;2023-05-14T06:53:11;5.75;;;3.97;;
62709;SDS011;48770;51.624;5.886;2023-05-14T06:55:37;4.68;;;4.22;;
62709;SDS011;48770;51.624;5.886;2023-05-14T06:58:02;7.68;;;4.05;;
62709;SDS011;48770;51.624;5.886;2023-05-14T07:00:30;7.95;;;4.10;;
62709;SDS011;48770;51.624;5.886;2023-05-14T07:02:55;4.63;;;4.23;;
62709;SDS011;48770;51.624;5.886;2023-05-14T07:05:20;7.20;;;4.38;;
62709;SDS011;48770;51.624;5.886;2023-05-14T07:07:46;5.55;;;3.80;;
62709;SDS011;48770;51.624;5.886;2023-05-14T07:10:11;7.53;;;4.90;;
62709;SDS011;48770;51.624;5.886;2023-05-14T07:12:36;6.78;;;3.70;;
62709;SDS011;48770;51.624;5.886;2023-05-14T07:15:02;5.78;;;4.18;;
62709;SDS011;48770;51.624;5.886;2023-05-14T07:17:27;7.13;;;4.70;;
62709;SDS011;48770;51.624;5.886;2023-05-14T07:19:53;6.53;;;4.47;;
62709;SDS011;48770;51.624;5.886;2023-05-14T07:22:20;7.80;;;3.90;;
62709;SDS011;48770;51.624;5.886;2023-05-14T07:24:45;6.38;;;4.00;;
62709;SDS011;48770;51.624;5.886;2023-05-14T07:27:11;5.07;;;4.40;;
62709;SDS011;48770;51.624;5.886;2023-05-14T07:29:36;5.47;;;3.83;;
62709;SDS011;48770;51.624;5.886;2023-05-14T07:32:02;5.68;;;3.83;;
62709;SDS011;48770;51.624;5.886;2023-05-14T07:34:27;6.78;;;4.30;;
62709;SDS011;48770;51.624;5.886;2023-05-14T07:36:53;6.45;;;3.85;;
62709;SDS011;48770;51.624;5.886;2023-05-14T07:39:18;7.93;;;3.83;;
62709;SDS011;48770;51.624;5.886;2023-05-14T07:41:43;8.43;;;3.70;;
62709;SDS011;48770;51.624;5.886;2023-05-14T07:44:09;6.72;;;4.10;;
62709;SDS011;48770;51.624;5.886;2023-05-14T07:46:35;4.82;;;3.85;;
62709;SDS011;48770;51.624;5.886;2023-05-14T07:49:00;5.28;;;3.88;;
62709;SDS011;48770;51.624;5.886;2023-05-14T07:51:26;5.63;;;3.67;;
62709;SDS011;48770;51.624;5.886;2023-05-14T07:53:52;5.38;;;4.03;;
62709;SDS011;48770;51.624;5.886;2023-05-14T07:56:19;8.02;;;4.43;;
62709;SDS011;48770;51.624;5.886;2023-05-14T07:58:45;5.38;;;4.10;;
62709;SDS011;48770;51.624;5.886;2023-05-14T08:01:10;7.43;;;4.57;;
62709;SDS011;48770;51.624;5.886;2023-05-14T08:03:36;5.10;;;3.88;;
62709;SDS011;48770;51.624;5.886;2023-05-14T08:06:02;9.10;;;4.47;;
62709;SDS011;48770;51.624;5.886;2023-05-14T08:08:28;7.80;;;4.60;;
62709;SDS011;48770;51.624;5.886;2023-05-14T08:10:53;8.13;;;4.30;;
62709;SDS011;48770;51.624;5.886;2023-05-14T08:13:19;5.03;;;4.13;;
62709;SDS011;48770;51.624;5.886;2023-05-14T08:15:44;7.47;;;4.33;;
62709;SDS011;48770;51.624;5.886;2023-05-14T08:18:09;10.90;;;4.65;;
62709;SDS011;48770;51.624;5.886;2023-05-14T08:20:34;7.97;;;4.63;;
62709;SDS011;48770;51.624;5.886;2023-05-14T08:23:00;8.00;;;3.92;;
62709;SDS011;48770;51.624;5.886;2023-05-14T08:25:25;5.30;;;4.40;;
62709;SDS011;48770;51.624;5.886;2023-05-14T08:27:50;6.65;;;4.00;;
62709;SDS011;48770;51.624;5.886;2023-05-14T08:30:18;8.05;;;4.00;;
62709;SDS011;48770;51.624;5.886;2023-05-14T08:32:43;6.97;;;4.50;;
62709;SDS011;48770;51.624;5.886;2023-05-14T08:35:08;5.77;;;4.50;;
62709;SDS011;48770;51.624;5.886;2023-05-14T08:37:34;7.85;;;4.15;;
62709;SDS011;48770;51.624;5.886;2023-05-14T08:40:00;5.32;;;4.10;;
62709;SDS011;48770;51.624;5.886;2023-05-14T08:42:25;5.85;;;4.07;;
62709;SDS011;48770;51.624;5.886;2023-05-14T08:44:56;7.65;;;4.05;;
62709;SDS011;48770;51.624;5.886;2023-05-14T08:47:25;4.93;;;4.15;;
62709;SDS011;48770;51.624;5.886;2023-05-14T08:50:02;5.82;;;4.53;;
62709;SDS011;48770;51.624;5.886;2023-05-14T08:52:29;6.43;;;4.05;;
62709;SDS011;48770;51.624;5.886;2023-05-14T08:54:55;4.43;;;3.80;;
62709;SDS011;48770;51.624;5.886;2023-05-14T08:57:22;7.55;;;4.60;;
62709;SDS011;48770;51.624;5.886;2023-05-14T08:59:50;5.38;;;4.20;;
62709;SDS011;48770;51.624;5.886;2023-05-14T09:02:17;6.72;;;4.20;;
62709;SDS011;48770;51.624;5.886;2023-05-14T09:04:46;4.75;;;3.97;;
62709;SDS011;48770;51.624;5.886;2023-05-14T09:07:14;9.25;;;4.47;;
62709;SDS011;48770;51.624;5.886;2023-05-14T09:09:39;5.40;;;3.83;;
62709;SDS011;48770;51.624;5.886;2023-05-14T09:12:05;3.90;;;3.50;;
62709;SDS011;48770;51.624;5.886;2023-05-14T09:14:31;5.80;;;3.78;;
62709;SDS011;48770;51.624;5.886;2023-05-14T09:16:57;4.40;;;3.30;;
62709;SDS011;48770;51.624;5.886;2023-05-14T09:19:23;6.35;;;3.80;;
62709;SDS011;48770;51.624;5.886;2023-05-14T09:21:49;7.18;;;4.25;;
62709;SDS011;48770;51.624;5.886;2023-05-14T09:24:21;6.30;;;4.05;;
62709;SDS011;48770;51.624;5.886;2023-05-14T09:26:52;6.90;;;3.45;;
62709;SDS011;48770;51.624;5.886;2023-05-14T09:29:18;6.03;;;3.80;;
62709;SDS011;48770;51.624;5.886;2023-05-14T09:31:44;4.22;;;3.67;;
62709;SDS011;48770;51.624;5.886;2023-05-14T09:34:09;5.63;;;3.92;;
62709;SDS011;48770;51.624;5.886;2023-05-14T09:36:35;5.60;;;3.13;;
62709;SDS011;48770;51.624;5.886;2023-05-14T09:39:03;5.90;;;3.63;;
62709;SDS011;48770;51.624;5.886;2023-05-14T09:41:29;5.68;;;3.40;;
62709;SDS011;48770;51.624;5.886;2023-05-14T09:43:54;5.03;;;3.22;;
62709;SDS011;48770;51.624;5.886;2023-05-14T09:46:21;7.22;;;3.55;;
62709;SDS011;48770;51.624;5.886;2023-05-14T09:48:47;5.38;;;3.80;;
62709;SDS011;48770;51.624;5.886;2023-05-14T09:51:13;4.63;;;3.45;;
62709;SDS011;48770;51.624;5.886;2023-05-14T09:53:38;6.90;;;3.80;;
62709;SDS011;48770;51.624;5.886;2023-05-14T09:56:05;5.72;;;3.53;;
62709;SDS011;48770;51.624;5.886;2023-05-14T09:58:30;3.72;;;3.30;;
62709;SDS011;48770;51.624;5.886;2023-05-14T10:00:56;6.80;;;3.60;;
62709;SDS011;48770;51.624;5.886;2023-05-14T10:03:22;4.85;;;4.05;;
62709;SDS011;48770;51.624;5.886;2023-05-14T10:05:50;5.22;;;3.33;;
62709;SDS011;48770;51.624;5.886;2023-05-14T10:08:34;7.72;;;4.07;;
62709;SDS011;48770;51.624;5.886;2023-05-14T10:11:03;5.60;;;3.40;;
62709;SDS011;48770;51.624;5.886;2023-05-14T10:13:36;5.32;;;3.45;;
62709;SDS011;48770;51.624;5.886;2023-05-14T10:16:07;3.97;;;3.25;;
62709;SDS011;48770;51.624;5.886;2023-05-14T10:18:49;5.78;;;3.65;;
62709;SDS011;48770;51.624;5.886;2023-05-14T10:21:17;4.50;;;3.35;;
62709;SDS011;48770;51.624;5.886;2023-05-14T10:23:44;3.38;;;2.83;;
62709;SDS011;48770;51.624;5.886;2023-05-14T10:26:11;4.95;;;3.58;;
62709;SDS011;48770;51.624;5.886;2023-05-14T10:28:37;4.38;;;3.15;;
62709;SDS011;48770;51.624;5.886;2023-05-14T10:31:02;4.82;;;3.40;;
62709;SDS011;48770;51.624;5.886;2023-05-14T10:33:27;4.07;;;2.75;;
62709;SDS011;48770;51.624;5.886;2023-05-14T10:35:57;5.32;;;3.08;;
62709;SDS011;48770;51.624;5.886;2023-05-14T10:38:28;3.00;;;2.53;;
62709;SDS011;48770;51.624;5.886;2023-05-14T10:41:05;4.00;;;3.30;;
62709;SDS011;48770;51.624;5.886;2023-05-14T10:43:37;4.97;;;3.08;;
62709;SDS011;48770;51.624;5.886;2023-05-14T10:46:04;3.13;;;2.80;;
62709;SDS011;48770;51.624;5.886;2023-05-14T10:48:30;2.92;;;2.63;;
62709;SDS011;48770;51.624;5.886;2023-05-14T10:50:57;4.15;;;3.03;;
62709;SDS011;48770;51.624;5.886;2023-05-14T10:53:30;2.78;;;2.50;;
62709;SDS011;48770;51.624;5.886;2023-05-14T10:56:06;4.00;;;2.50;;
62709;SDS011;48770;51.624;5.886;2023-05-14T10:58:36;5.35;;;2.90;;
62709;SDS011;48770;51.624;5.886;2023-05-14T11:01:04;2.75;;;2.33;;
62709;SDS011;48770;51.624;5.886;2023-05-14T11:03:31;3.58;;;3.10;;
62709;SDS011;48770;51.624;5.886;2023-05-14T11:06:02;4.40;;;2.58;;
62709;SDS011;48770;51.624;5.886;2023-05-14T11:08:28;3.25;;;2.80;;
62709;SDS011;48770;51.624;5.886;2023-05-14T11:10:55;2.78;;;2.47;;
62709;SDS011;48770;51.624;5.886;2023-05-14T11:13:21;3.97;;;2.80;;
62709;SDS011;48770;51.624;5.886;2023-05-14T11:15:46;4.15;;;2.60;;
62709;SDS011;48770;51.624;5.886;2023-05-14T11:18:13;4.22;;;3.10;;
62709;SDS011;48770;51.624;5.886;2023-05-14T11:20:50;3.20;;;2.72;;
62709;SDS011;48770;51.624;5.886;2023-05-14T11:23:16;2.88;;;2.60;;
62709;SDS011;48770;51.624;5.886;2023-05-14T11:25:41;3.33;;;2.33;;
62709;SDS011;48770;51.624;5.886;2023-05-14T11:28:07;3.83;;;2.50;;
62709;SDS011;48770;51.624;5.886;2023-05-14T11:30:32;4.88;;;2.67;;
62709;SDS011;48770;51.624;5.886;2023-05-14T11:32:58;2.72;;;2.53;;
62709;SDS011;48770;51.624;5.886;2023-05-14T11:35:24;4.80;;;2.35;;
62709;SDS011;48770;51.624;5.886;2023-05-14T11:37:50;2.85;;;2.40;;
62709;SDS011;48770;51.624;5.886;2023-05-14T11:40:19;6.47;;;2.33;;
62709;SDS011;48770;51.624;5.886;2023-05-14T11:42:44;4.72;;;2.38;;
62709;SDS011;48770;51.624;5.886;2023-05-14T11:45:10;2.53;;;2.10;;
62709;SDS011;48770;51.624;5.886;2023-05-14T11:47:37;2.75;;;2.20;;
62709;SDS011;48770;51.624;5.886;2023-05-14T11:50:03;2.70;;;2.38;;
62709;SDS011;48770;51.624;5.886;2023-05-14T11:52:28;2.53;;;2.33;;
62709;SDS011;48770;51.624;5.886;2023-05-14T11:54:53;3.63;;;2.50;;
62709;SDS011;48770;51.624;5.886;2023-05-14T11:57:20;2.75;;;2.33;;
62709;SDS011;48770;51.624;5.886;2023-05-14T11:59:46;2.45;;;2.03;;
62709;SDS011;48770;51.624;5.886;2023-05-14T12:02:14;2.35;;;1.95;;
62709;SDS011;48770;51.624;5.886;2023-05-14T12:04:42;2.67;;;2.15;;
62709;SDS011;48770;51.624;5.886;2023-05-14T12:07:09;6.47;;;2.50;;
62709;SDS011;48770;51.624;5.886;2023-05-14T12:09:39;3.33;;;1.95;;
62709;SDS011;48770;51.624;5.886;2023-05-14T12:12:09;2.63;;;2.03;;
62709;SDS011;48770;51.624;5.886;2023-05-14T12:14:40;2.90;;;2.08;;
62709;SDS011;48770;51.624;5.886;2023-05-14T12:17:16;2.50;;;2.30;;
62709;SDS011;48770;51.624;5.886;2023-05-14T12:19:43;2.63;;;2.22;;
62709;SDS011;48770;51.624;5.886;2023-05-14T12:22:10;3.28;;;2.30;;
62709;SDS011;48770;51.624;5.886;2023-05-14T12:24:37;2.40;;;2.20;;
62709;SDS011;48770;51.624;5.886;2023-05-14T12:27:03;2.75;;;1.80;;
62709;SDS011;48770;51.624;5.886;2023-05-14T12:29:29;2.10;;;1.90;;
62709;SDS011;48770;51.624;5.886;2023-05-14T12:31:55;2.40;;;2.17;;
62709;SDS011;48770;51.624;5.886;2023-05-14T12:34:23;2.38;;;1.80;;
62709;SDS011;48770;51.624;5.886;2023-05-14T12:36:48;2.08;;;1.88;;
62709;SDS011;48770;51.624;5.886;2023-05-14T12:39:13;2.47;;;1.77;;
62709;SDS011;48770;51.624;5.886;2023-05-14T12:41:39;2.90;;;1.85;;
62709;SDS011;48770;51.624;5.886;2023-05-14T12:44:04;1.98;;;1.77;;
62709;SDS011;48770;51.624;5.886;2023-05-14T12:46:30;3.50;;;1.75;;
62709;SDS011;48770;51.624;5.886;2023-05-14T12:48:56;1.80;;;1.70;;
62709;SDS011;48770;51.624;5.886;2023-05-14T12:51:22;2.17;;;1.88;;
62709;SDS011;48770;51.624;5.886;2023-05-14T12:53:48;4.10;;;1.92;;
62709;SDS011;48770;51.624;5.886;2023-05-14T12:56:14;2.67;;;1.60;;
62709;SDS011;48770;51.624;5.886;2023-05-14T12:58:40;2.00;;;1.70;;
62709;SDS011;48770;51.624;5.886;2023-05-14T13:01:05;1.58;;;1.48;;
62709;SDS011;48770;51.624;5.886;2023-05-14T13:03:30;1.85;;;1.50;;
62709;SDS011;48770;51.624;5.886;2023-05-14T13:05:56;2.13;;;1.63;;
62709;SDS011;48770;51.624;5.886;2023-05-14T13:08:22;4.18;;;1.85;;
62709;SDS011;48770;51.624;5.886;2023-05-14T13:10:50;1.60;;;1.50;;
62709;SDS011;48770;51.624;5.886;2023-05-14T13:13:16;2.95;;;1.48;;
62709;SDS011;48770;51.624;5.886;2023-05-14T13:15:41;3.28;;;1.65;;
62709;SDS011;48770;51.624;5.886;2023-05-14T13:18:06;2.20;;;1.80;;
62709;SDS011;48770;51.624;5.886;2023-05-14T13:20:32;1.73;;;1.63;;
62709;SDS011;48770;51.624;5.886;2023-05-14T13:22:58;2.88;;;1.95;;
62709;SDS011;48770;51.624;5.886;2023-05-14T13:25:24;1.83;;;1.67;;
62709;SDS011;48770;51.624;5.886;2023-05-14T13:27:50;2.00;;;1.80;;
62709;SDS011;48770;51.624;5.886;2023-05-14T13:30:18;1.60;;;1.50;;
62709;SDS011;48770;51.624;5.886;2023-05-14T13:32:44;2.03;;;1.75;;
62709;SDS011;48770;51.624;5.886;2023-05-14T13:35:10;2.17;;;1.73;;
62709;SDS011;48770;51.624;5.886;2023-05-14T13:37:36;3.35;;;1.80;;
62709;SDS011;48770;51.624;5.886;2023-05-14T13:40:02;2.00;;;1.70;;
62709;SDS011;48770;51.624;5.886;2023-05-14T13:42:34;3.05;;;2.00;;
62709;SDS011;48770;51.624;5.886;2023-05-14T13:45:00;2.88;;;1.80;;
62709;SDS011;48770;51.624;5.886;2023-05-14T13:47:26;2.42;;;1.70;;
62709;SDS011;48770;51.624;5.886;2023-05-14T13:49:52;2.13;;;1.67;;
62709;SDS011;48770;51.624;5.886;2023-05-14T13:52:18;1.70;;;1.60;;
62709;SDS011;48770;51.624;5.886;2023-05-14T13:54:43;2.88;;;1.83;;
62709;SDS011;48770;51.624;5.886;2023-05-14T13:57:09;2.50;;;1.70;;
62709;SDS011;48770;51.624;5.886;2023-05-14T13:59:34;2.25;;;1.98;;
62709;SDS011;48770;51.624;5.886;2023-05-14T14:02:00;2.42;;;1.63;;
62709;SDS011;48770;51.624;5.886;2023-05-14T14:04:25;1.88;;;1.58;;
62709;SDS011;48770;51.624;5.886;2023-05-14T14:06:53;2.00;;;1.80;;
62709;SDS011;48770;51.624;5.886;2023-05-14T14:09:19;2.08;;;1.63;;
62709;SDS011;48770;51.624;5.886;2023-05-14T14:11:44;2.22;;;1.50;;
62709;SDS011;48770;51.624;5.886;2023-05-14T14:14:10;3.70;;;2.15;;
62709;SDS011;48770;51.624;5.886;2023-05-14T14:16:35;3.28;;;1.58;;
62709;SDS011;48770;51.624;5.886;2023-05-14T14:19:00;2.13;;;1.48;;
62709;SDS011;48770;51.624;5.886;2023-05-14T14:21:25;2.53;;;1.70;;
62709;SDS011;48770;51.624;5.886;2023-05-14T14:23:51;1.83;;;1.50;;
62709;SDS011;48770;51.624;5.886;2023-05-14T14:26:17;2.50;;;1.52;;
62709;SDS011;48770;51.624;5.886;2023-05-14T14:28:42;2.08;;;1.77;;
62709;SDS011;48770;51.624;5.886;2023-05-14T14:31:08;1.60;;;1.50;;
62709;SDS011;48770;51.624;5.886;2023-05-14T14:33:33;2.05;;;1.70;;
62709;SDS011;48770;51.624;5.886;2023-05-14T14:35:58;2.90;;;2.08;;
62709;SDS011;48770;51.624;5.886;2023-05-14T14:38:24;2.27;;;1.70;;
62709;SDS011;48770;51.624;5.886;2023-05-14T14:40:49;2.00;;;1.60;;
62709;SDS011;48770;51.624;5.886;2023-05-14T14:43:14;1.90;;;1.40;;
62709;SDS011;48770;51.624;5.886;2023-05-14T14:45:40;2.33;;;1.70;;
62709;SDS011;48770;51.624;5.886;2023-05-14T14:48:25;2.55;;;1.73;;
62709;SDS011;48770;51.624;5.886;2023-05-14T14:50:51;2.42;;;1.50;;